Time,TemperatureF,DewpointF,PressureIn,WindDirection,WindDirectionDegrees,WindSpeedMPH,WindSpeedGustMPH,Humidity,HourlyPrecipIn,Conditions,Clouds,dailyrainin,SolarRadiationWatts/m^2,SoftwareType,DateUTC
2013-07-14 00:01:00,69.0,69.0,-100.00,NNE,17,0.0,0.0,99,0.00,,,0.00,0.000000,,2013-07-14 04:01:00,
2013-07-14 00:22:00,69.0,69.0,-100.00,NNE,17,0.0,0.0,99,0.00,,,0.00,0.000000,,2013-07-14 04:22:00,
2013-07-14 00:32:00,69.0,69.0,-100.00,NNE,17,0.0,0.0,99,0.00,,,0.00,0.000000,,2013-07-14 04:32:00,
2013-07-14 00:42:00,69.0,69.0,-100.00,NNE,17,0.0,0.0,99,0.00,,,0.00,0.000000,,2013-07-14 04:42:00,
2013-07-14 00:54:00,69.0,69.0,-100.00,NNE,17,0.0,0.0,99,0.00,,,0.00,0.000000,,2013-07-14 04:54:00,
2013-07-14 01:01:00,70.0,69.0,-100.00,NNE,17,0.0,0.0,97,0.00,,,0.00,0.000000,,2013-07-14 05:01:00,
2013-07-14 01:23:00,70.0,69.0,-100.00,NNE,17,0.0,0.0,97,0.00,,,0.00,0.000000,,2013-07-14 05:23:00,
2013-07-14 01:32:00,70.0,69.0,-100.00,NNE,17,0.0,0.0,97,0.00,,,0.00,0.000000,,2013-07-14 05:32:00,
2013-07-14 01:43:00,70.0,69.0,-100.00,NNE,17,0.0,0.0,97,0.00,,,0.00,0.000000,,2013-07-14 05:43:00,
2013-07-14 01:53:00,70.0,69.0,-100.00,NNE,17,0.0,0.0,97,0.00,,,0.00,0.000000,,2013-07-14 05:53:00,
2013-07-14 02:01:00,69.0,68.0,-100.00,NNE,17,0.0,0.0,97,0.00,,,0.00,0.000000,,2013-07-14 06:01:00,
2013-07-14 02:32:00,69.0,68.0,-100.00,NNE,17,0.0,0.0,97,0.00,,,0.00,0.000000,,2013-07-14 06:32:00,
2013-07-14 02:42:00,69.0,68.0,-100.00,NNE,17,0.0,0.0,97,0.00,,,0.00,0.000000,,2013-07-14 06:42:00,
2013-07-14 02:53:00,69.0,68.0,-100.00,NNE,17,0.0,0.0,97,0.00,,,0.00,0.000000,,2013-07-14 06:53:00,
2013-07-14 03:01:00,69.0,68.0,-100.00,NNE,17,0.0,0.0,97,0.00,,,0.00,0.000000,,2013-07-14 07:01:00,
2013-07-14 03:22:00,69.0,68.0,-100.00,NNE,17,0.0,0.0,97,0.00,,,0.00,0.000000,,2013-07-14 07:22:00,
2013-07-14 03:33:00,69.0,68.0,-100.00,NNE,17,0.0,0.0,97,0.00,,,0.00,0.000000,,2013-07-14 07:33:00,
2013-07-14 03:43:00,69.0,68.0,-100.00,NNE,17,0.0,0.0,97,0.00,,,0.00,0.000000,,2013-07-14 07:43:00,
2013-07-14 03:53:00,69.0,68.0,-100.00,NNE,17,0.0,0.0,97,0.00,,,0.00,0.000000,,2013-07-14 07:53:00,
2013-07-14 04:01:00,69.0,68.0,-100.00,NNE,17,0.0,0.0,98,0.00,,,0.00,0.000000,,2013-07-14 08:01:00,
2013-07-14 04:22:00,69.0,68.0,-100.00,NNE,17,0.0,0.0,98,0.00,,,0.00,0.000000,,2013-07-14 08:22:00,
2013-07-14 04:32:00,69.0,68.0,-100.00,NNE,17,0.0,0.0,98,0.00,,,0.00,0.000000,,2013-07-14 08:32:00,
2013-07-14 04:42:00,69.0,68.0,-100.00,NNE,17,0.0,0.0,98,0.00,,,0.00,0.000000,,2013-07-14 08:42:00,
2013-07-14 04:53:00,69.0,68.0,-100.00,NNE,17,0.0,0.0,98,0.00,,,0.00,0.000000,,2013-07-14 08:53:00,
2013-07-14 05:01:00,69.0,68.0,-100.00,NNE,17,0.0,0.0,97,0.00,,,0.00,0.000000,,2013-07-14 09:01:00,
2013-07-14 05:22:00,69.0,68.0,-100.00,NNE,17,0.0,0.0,97,0.00,,,0.00,0.000000,,2013-07-14 09:22:00,
2013-07-14 05:32:00,69.0,68.0,-100.00,NNE,17,0.0,0.0,97,0.00,,,0.00,0.000000,,2013-07-14 09:32:00,
2013-07-14 05:42:00,69.0,68.0,-100.00,NNE,17,0.0,0.0,97,0.00,,,0.00,0.000000,,2013-07-14 09:42:00,
2013-07-14 05:53:00,69.0,68.0,-100.00,NNE,17,0.0,0.0,97,0.00,,,0.00,0.000000,,2013-07-14 09:53:00,
2013-07-14 06:01:00,69.0,68.0,-100.00,NNE,17,0.0,0.0,97,0.00,,,0.00,4.000000,,2013-07-14 10:01:00,
2013-07-14 06:22:00,69.0,68.0,-100.00,NNE,17,0.0,0.0,97,0.00,,,0.00,4.000000,,2013-07-14 10:22:00,
2013-07-14 06:32:00,69.0,68.0,-100.00,NNE,17,0.0,0.0,97,0.00,,,0.00,4.000000,,2013-07-14 10:32:00,
2013-07-14 06:42:00,69.0,68.0,-100.00,NNE,17,0.0,0.0,97,0.00,,,0.00,4.000000,,2013-07-14 10:42:00,
2013-07-14 06:53:00,69.0,68.0,-100.00,NNE,17,0.0,0.0,97,0.00,,,0.00,4.000000,,2013-07-14 10:53:00,
2013-07-14 07:01:00,71.0,70.0,-100.00,NNE,17,0.0,0.0,96,0.00,,,0.00,44.000000,,2013-07-14 11:01:00,
2013-07-14 07:32:00,71.0,70.0,-100.00,NNE,17,0.0,0.0,96,0.00,,,0.00,44.000000,,2013-07-14 11:32:00,
2013-07-14 07:43:00,71.0,70.0,-100.00,NNE,17,0.0,0.0,96,0.00,,,0.00,44.000000,,2013-07-14 11:43:00,
2013-07-14 07:53:00,71.0,70.0,-100.00,NNE,17,0.0,0.0,96,0.00,,,0.00,44.000000,,2013-07-14 11:53:00,
2013-07-14 08:01:00,75.0,71.0,-100.00,East,91,0.0,0.0,87,0.00,,,0.00,128.000000,,2013-07-14 12:01:00,
2013-07-14 08:33:00,75.0,71.0,-100.00,East,91,0.0,0.0,87,0.00,,,0.00,128.000000,,2013-07-14 12:33:00,
2013-07-14 08:43:00,75.0,71.0,-100.00,East,91,0.0,0.0,87,0.00,,,0.00,128.000000,,2013-07-14 12:43:00,
2013-07-14 08:53:00,75.0,71.0,-100.00,East,91,0.0,0.0,87,0.00,,,0.00,128.000000,,2013-07-14 12:53:00,
2013-07-14 09:01:00,79.0,70.0,-100.00,South,172,1.0,4.0,74,0.00,,,0.00,220.000000,,2013-07-14 13:01:00,
2013-07-14 09:32:00,79.0,70.0,-100.00,South,172,1.0,4.0,74,0.00,,,0.00,220.000000,,2013-07-14 13:32:00,
2013-07-14 09:42:00,79.0,70.0,-100.00,South,172,1.0,4.0,74,0.00,,,0.00,220.000000,,2013-07-14 13:42:00,
2013-07-14 09:53:00,79.0,70.0,-100.00,South,172,1.0,4.0,74,0.00,,,0.00,220.000000,,2013-07-14 13:53:00,
2013-07-14 10:01:00,81.0,71.0,-100.00,SSW,198,1.0,4.0,71,0.00,,,0.00,374.000000,,2013-07-14 14:01:00,
2013-07-14 10:23:00,81.0,71.0,-100.00,SSW,198,1.0,4.0,71,0.00,,,0.00,374.000000,,2013-07-14 14:23:00,
2013-07-14 10:33:00,81.0,71.0,-100.00,SSW,198,1.0,4.0,71,0.00,,,0.00,374.000000,,2013-07-14 14:33:00,
2013-07-14 10:43:00,81.0,71.0,-100.00,SSW,198,1.0,4.0,71,0.00,,,0.00,374.000000,,2013-07-14 14:43:00,
2013-07-14 10:53:00,81.0,71.0,-100.00,SSW,198,1.0,4.0,71,0.00,,,0.00,374.000000,,2013-07-14 14:53:00,
2013-07-14 11:01:00,84.0,71.0,-100.00,South,183,2.0,6.0,65,0.00,,,0.00,646.000000,,2013-07-14 15:01:00,
2013-07-14 11:22:00,84.0,71.0,-100.00,South,183,2.0,6.0,65,0.00,,,0.00,646.000000,,2013-07-14 15:22:00,
2013-07-14 11:32:00,84.0,71.0,-100.00,South,183,2.0,6.0,65,0.00,,,0.00,646.000000,,2013-07-14 15:32:00,
2013-07-14 11:42:00,84.0,71.0,-100.00,South,183,2.0,6.0,65,0.00,,,0.00,646.000000,,2013-07-14 15:42:00,
2013-07-14 11:53:00,84.0,71.0,-100.00,South,183,2.0,6.0,65,0.00,,,0.00,646.000000,,2013-07-14 15:53:00,
2013-07-14 12:01:00,84.0,70.0,-100.00,WNW,288,1.0,5.0,64,0.00,,,0.00,568.000000,,2013-07-14 16:01:00,
2013-07-14 12:22:00,84.0,70.0,-100.00,WNW,288,1.0,5.0,64,0.00,,,0.00,568.000000,,2013-07-14 16:22:00,
2013-07-14 12:32:00,84.0,70.0,-100.00,WNW,288,1.0,5.0,64,0.00,,,0.00,568.000000,,2013-07-14 16:32:00,
2013-07-14 12:43:00,84.0,70.0,-100.00,WNW,288,1.0,5.0,64,0.00,,,0.00,568.000000,,2013-07-14 16:43:00,
2013-07-14 12:54:00,84.0,70.0,-100.00,WNW,288,1.0,5.0,64,0.00,,,0.00,568.000000,,2013-07-14 16:54:00,
2013-07-14 13:01:00,87.0,71.0,-100.00,SSW,195,3.0,7.0,59,0.00,,,0.00,800.000000,,2013-07-14 17:01:00,
2013-07-14 13:22:00,87.0,71.0,-100.00,SSW,195,3.0,7.0,59,0.00,,,0.00,800.000000,,2013-07-14 17:22:00,
2013-07-14 13:32:00,87.0,71.0,-100.00,SSW,195,3.0,7.0,59,0.00,,,0.00,800.000000,,2013-07-14 17:32:00,
2013-07-14 13:43:00,87.0,71.0,-100.00,SSW,195,3.0,7.0,59,0.00,,,0.00,800.000000,,2013-07-14 17:43:00,
2013-07-14 13:53:00,87.0,71.0,-100.00,SSW,195,3.0,7.0,59,0.00,,,0.00,800.000000,,2013-07-14 17:53:00,
2013-07-14 14:01:00,89.0,72.0,-100.00,SSW,196,1.0,6.0,57,0.00,,,0.00,871.000000,,2013-07-14 18:01:00,
2013-07-14 14:22:00,89.0,72.0,-100.00,SSW,196,1.0,6.0,57,0.00,,,0.00,871.000000,,2013-07-14 18:22:00,
2013-07-14 14:32:00,89.0,72.0,-100.00,SSW,196,1.0,6.0,57,0.00,,,0.00,871.000000,,2013-07-14 18:32:00,
2013-07-14 14:42:00,89.0,72.0,-100.00,SSW,196,1.0,6.0,57,0.00,,,0.00,871.000000,,2013-07-14 18:42:00,
2013-07-14 14:52:00,89.0,72.0,-100.00,SSW,196,1.0,6.0,57,0.00,,,0.00,871.000000,,2013-07-14 18:52:00,
2013-07-14 15:01:00,91.0,70.0,-100.00,WSW,254,1.0,6.0,50,0.00,,,0.00,943.000000,,2013-07-14 19:01:00,
2013-07-14 15:22:00,91.0,70.0,-100.00,WSW,254,1.0,6.0,50,0.00,,,0.00,943.000000,,2013-07-14 19:22:00,
2013-07-14 15:32:00,91.0,70.0,-100.00,WSW,254,1.0,6.0,50,0.00,,,0.00,943.000000,,2013-07-14 19:32:00,
2013-07-14 15:43:00,91.0,70.0,-100.00,WSW,254,1.0,6.0,50,0.00,,,0.00,943.000000,,2013-07-14 19:43:00,
2013-07-14 15:53:00,91.0,70.0,-100.00,WSW,254,1.0,6.0,50,0.00,,,0.00,943.000000,,2013-07-14 19:53:00,
2013-07-14 16:01:00,91.0,71.0,-100.00,SSW,204,1.0,7.0,52,0.00,,,0.00,758.000000,,2013-07-14 20:01:00,
2013-07-14 16:22:00,91.0,71.0,-100.00,SSW,204,1.0,7.0,52,0.00,,,0.00,758.000000,,2013-07-14 20:22:00,
2013-07-14 16:32:00,91.0,71.0,-100.00,SSW,204,1.0,7.0,52,0.00,,,0.00,758.000000,,2013-07-14 20:32:00,
2013-07-14 16:43:00,91.0,71.0,-100.00,SSW,204,1.0,7.0,52,0.00,,,0.00,758.000000,,2013-07-14 20:43:00,
2013-07-14 16:53:00,91.0,71.0,-100.00,SSW,204,1.0,7.0,52,0.00,,,0.00,758.000000,,2013-07-14 20:53:00,
2013-07-14 17:01:00,89.0,71.0,-100.00,SSW,196,1.0,6.0,55,0.00,,,0.00,554.000000,,2013-07-14 21:01:00,
2013-07-14 17:22:00,89.0,71.0,-100.00,SSW,196,1.0,6.0,55,0.00,,,0.00,554.000000,,2013-07-14 21:22:00,
2013-07-14 17:32:00,89.0,71.0,-100.00,SSW,196,1.0,6.0,55,0.00,,,0.00,554.000000,,2013-07-14 21:32:00,
2013-07-14 17:43:00,89.0,71.0,-100.00,SSW,196,1.0,6.0,55,0.00,,,0.00,554.000000,,2013-07-14 21:43:00,
2013-07-14 17:53:00,89.0,71.0,-100.00,SSW,196,1.0,6.0,55,0.00,,,0.00,554.000000,,2013-07-14 21:53:00,
2013-07-14 18:01:00,88.0,71.0,-100.00,SSW,194,0.0,7.0,58,0.00,,,0.00,362.000000,,2013-07-14 22:01:00,
2013-07-14 18:22:00,88.0,71.0,-100.00,SSW,194,0.0,7.0,58,0.00,,,0.00,362.000000,,2013-07-14 22:22:00,
2013-07-14 18:32:00,88.0,71.0,-100.00,SSW,194,0.0,7.0,58,0.00,,,0.00,362.000000,,2013-07-14 22:32:00,
2013-07-14 18:42:00,88.0,71.0,-100.00,SSW,194,0.0,7.0,58,0.00,,,0.00,362.000000,,2013-07-14 22:42:00,
2013-07-14 18:53:00,88.0,71.0,-100.00,SSW,194,0.0,7.0,58,0.00,,,0.00,362.000000,,2013-07-14 22:53:00,
2013-07-14 19:01:00,84.0,70.0,-100.00,West,277,0.0,5.0,64,0.00,,,0.00,224.000000,,2013-07-14 23:01:00,
2013-07-14 19:32:00,84.0,70.0,-100.00,West,277,0.0,5.0,64,0.00,,,0.00,224.000000,,2013-07-14 23:32:00,
2013-07-14 19:42:00,84.0,70.0,-100.00,West,277,0.0,5.0,64,0.00,,,0.00,224.000000,,2013-07-14 23:42:00,
2013-07-14 19:53:00,84.0,70.0,-100.00,West,277,0.0,5.0,64,0.00,,,0.00,224.000000,,2013-07-14 23:53:00,
2013-07-14 20:01:00,78.0,72.0,-100.00,WNW,296,0.0,2.0,83,0.00,,,0.00,27.000000,,2013-07-15 00:01:00,
2013-07-14 20:22:00,78.0,72.0,-100.00,WNW,296,0.0,2.0,83,0.00,,,0.00,27.000000,,2013-07-15 00:22:00,
2013-07-14 20:32:00,78.0,72.0,-100.00,WNW,296,0.0,2.0,83,0.00,,,0.00,27.000000,,2013-07-15 00:32:00,
2013-07-14 20:43:00,78.0,72.0,-100.00,WNW,296,0.0,2.0,83,0.00,,,0.00,27.000000,,2013-07-15 00:43:00,
2013-07-14 20:53:00,78.0,72.0,-100.00,WNW,296,0.0,2.0,83,0.00,,,0.00,27.000000,,2013-07-15 00:53:00,
2013-07-14 21:01:00,75.0,72.0,-100.00,WNW,296,0.0,0.0,90,0.00,,,0.00,8.000000,,2013-07-15 01:01:00,
2013-07-14 21:22:00,75.0,72.0,-100.00,WNW,296,0.0,0.0,90,0.00,,,0.00,8.000000,,2013-07-15 01:22:00,
2013-07-14 21:32:00,75.0,72.0,-100.00,WNW,296,0.0,0.0,90,0.00,,,0.00,8.000000,,2013-07-15 01:32:00,
2013-07-14 21:43:00,75.0,72.0,-100.00,WNW,296,0.0,0.0,90,0.00,,,0.00,8.000000,,2013-07-15 01:43:00,
2013-07-14 21:53:00,75.0,72.0,-100.00,WNW,296,0.0,0.0,90,0.00,,,0.00,8.000000,,2013-07-15 01:53:00,
2013-07-14 22:01:00,73.0,72.0,-100.00,WNW,296,0.0,0.0,96,0.00,,,0.00,0.000000,,2013-07-15 02:01:00,
2013-07-14 22:22:00,73.0,72.0,-100.00,WNW,296,0.0,0.0,96,0.00,,,0.00,0.000000,,2013-07-15 02:22:00,
2013-07-14 22:32:00,73.0,72.0,-100.00,WNW,296,0.0,0.0,96,0.00,,,0.00,0.000000,,2013-07-15 02:32:00,
2013-07-14 22:42:00,73.0,72.0,-100.00,WNW,296,0.0,0.0,96,0.00,,,0.00,0.000000,,2013-07-15 02:42:00,
2013-07-14 22:53:00,73.0,72.0,-100.00,WNW,296,0.0,0.0,96,0.00,,,0.00,0.000000,,2013-07-15 02:53:00,
2013-07-14 23:01:00,71.0,70.0,-100.00,WNW,296,0.0,0.0,97,0.00,,,0.00,0.000000,,2013-07-15 03:01:00,
2013-07-14 23:22:00,71.0,70.0,-100.00,WNW,296,0.0,0.0,97,0.00,,,0.00,0.000000,,2013-07-15 03:22:00,
2013-07-14 23:32:00,71.0,70.0,-100.00,WNW,296,0.0,0.0,97,0.00,,,0.00,0.000000,,2013-07-15 03:32:00,
2013-07-14 23:43:00,71.0,70.0,-100.00,WNW,296,0.0,0.0,97,0.00,,,0.00,0.000000,,2013-07-15 03:43:00,
2013-07-14 23:53:00,71.0,70.0,-100.00,WNW,296,0.0,0.0,97,0.00,,,0.00,0.000000,,2013-07-15 03:53:00,